sensor_id;sensor_type;location;lat;lon;timestamp;P1;durP1;ratioP1;P2;durP2;ratioP2
12587;SDS011;6359;51.450;7.346;2022-09-09T00:01:02;3.03;;;1.20;;
12587;SDS011;6359;51.450;7.346;2022-09-09T00:03:38;2.47;;;1.30;;
12587;SDS011;6359;51.450;7.346;2022-09-09T00:06:12;2.97;;;1.30;;
12587;SDS011;6359;51.450;7.346;2022-09-09T00:08:48;4.63;;;1.35;;
12587;SDS011;6359;51.450;7.346;2022-09-09T00:11:24;3.33;;;1.42;;
12587;SDS011;6359;51.450;7.346;2022-09-09T00:13:57;1.60;;;1.13;;
12587;SDS011;6359;51.450;7.346;2022-09-09T00:16:31;4.53;;;1.40;;
12587;SDS011;6359;51.450;7.346;2022-09-09T00:19:04;4.15;;;1.13;;
12587;SDS011;6359;51.450;7.346;2022-09-09T00:21:35;1.45;;;1.00;;
12587;SDS011;6359;51.450;7.346;2022-09-09T00:24:08;2.50;;;1.30;;
12587;SDS011;6359;51.450;7.346;2022-09-09T00:26:41;1.25;;;1.00;;
12587;SDS011;6359;51.450;7.346;2022-09-09T00:29:13;2.35;;;1.10;;
12587;SDS011;6359;51.450;7.346;2022-09-09T00:31:50;3.80;;;1.40;;
12587;SDS011;6359;51.450;7.346;2022-09-09T00:34:24;5.57;;;1.88;;
12587;SDS011;6359;51.450;7.346;2022-09-09T00:36:54;3.17;;;1.50;;
12587;SDS011;6359;51.450;7.346;2022-09-09T00:39:25;3.28;;;1.20;;
12587;SDS011;6359;51.450;7.346;2022-09-09T00:42:01;4.45;;;1.38;;
12587;SDS011;6359;51.450;7.346;2022-09-09T00:44:42;1.15;;;1.13;;
12587;SDS011;6359;51.450;7.346;2022-09-09T00:47:23;3.35;;;1.50;;
12587;SDS011;6359;51.450;7.346;2022-09-09T00:50:08;2.05;;;1.30;;
12587;SDS011;6359;51.450;7.346;2022-09-09T00:52:51;3.75;;;1.10;;
12587;SDS011;6359;51.450;7.346;2022-09-09T00:55:30;4.80;;;1.40;;
12587;SDS011;6359;51.450;7.346;2022-09-09T00:58:06;5.60;;;1.40;;
12587;SDS011;6359;51.450;7.346;2022-09-09T01:00:35;2.25;;;1.20;;
12587;SDS011;6359;51.450;7.346;2022-09-09T01:03:20;4.88;;;1.48;;
12587;SDS011;6359;51.450;7.346;2022-09-09T01:05:54;2.13;;;1.40;;
12587;SDS011;6359;51.450;7.346;2022-09-09T01:08:34;1.48;;;1.20;;
12587;SDS011;6359;51.450;7.346;2022-09-09T01:11:10;2.90;;;1.45;;
12587;SDS011;6359;51.450;7.346;2022-09-09T01:13:43;6.47;;;1.70;;
12587;SDS011;6359;51.450;7.346;2022-09-09T01:16:15;3.00;;;1.40;;
12587;SDS011;6359;51.450;7.346;2022-09-09T01:18:46;3.38;;;1.80;;
12587;SDS011;6359;51.450;7.346;2022-09-09T01:21:18;3.85;;;1.50;;
12587;SDS011;6359;51.450;7.346;2022-09-09T01:24:11;2.53;;;1.60;;
12587;SDS011;6359;51.450;7.346;2022-09-09T01:26:49;3.92;;;1.80;;
12587;SDS011;6359;51.450;7.346;2022-09-09T01:29:19;5.10;;;1.90;;
12587;SDS011;6359;51.450;7.346;2022-09-09T01:31:52;3.13;;;1.80;;
12587;SDS011;6359;51.450;7.346;2022-09-09T01:34:20;4.60;;;2.03;;
12587;SDS011;6359;51.450;7.346;2022-09-09T01:36:49;6.15;;;1.95;;
12587;SDS011;6359;51.450;7.346;2022-09-09T01:39:23;3.83;;;2.00;;
12587;SDS011;6359;51.450;7.346;2022-09-09T01:41:51;5.05;;;2.05;;
12587;SDS011;6359;51.450;7.346;2022-09-09T01:44:19;6.00;;;2.08;;
12587;SDS011;6359;51.450;7.346;2022-09-09T01:46:46;6.00;;;1.98;;
12587;SDS011;6359;51.450;7.346;2022-09-09T01:49:13;7.43;;;2.47;;
12587;SDS011;6359;51.450;7.346;2022-09-09T01:51:40;5.53;;;2.22;;
12587;SDS011;6359;51.450;7.346;2022-09-09T01:54:10;5.55;;;2.28;;
12587;SDS011;6359;51.450;7.346;2022-09-09T01:56:40;6.07;;;2.20;;
12587;SDS011;6359;51.450;7.346;2022-09-09T01:59:21;5.05;;;2.08;;
12587;SDS011;6359;51.450;7.346;2022-09-09T02:02:01;4.10;;;2.25;;
12587;SDS011;6359;51.450;7.346;2022-09-09T02:04:37;4.18;;;1.95;;
12587;SDS011;6359;51.450;7.346;2022-09-09T02:07:08;5.93;;;1.95;;
12587;SDS011;6359;51.450;7.346;2022-09-09T02:09:44;4.90;;;2.10;;
12587;SDS011;6359;51.450;7.346;2022-09-09T02:12:16;5.75;;;2.00;;
12587;SDS011;6359;51.450;7.346;2022-09-09T02:14:48;3.70;;;1.50;;
12587;SDS011;6359;51.450;7.346;2022-09-09T02:17:22;5.38;;;1.70;;
12587;SDS011;6359;51.450;7.346;2022-09-09T02:19:55;2.45;;;1.48;;
12587;SDS011;6359;51.450;7.346;2022-09-09T02:22:26;3.78;;;2.25;;
12587;SDS011;6359;51.450;7.346;2022-09-09T02:24:56;5.50;;;2.20;;
12587;SDS011;6359;51.450;7.346;2022-09-09T02:27:25;4.35;;;1.70;;
12587;SDS011;6359;51.450;7.346;2022-09-09T02:29:53;5.68;;;1.88;;
12587;SDS011;6359;51.450;7.346;2022-09-09T02:32:23;2.22;;;1.50;;
12587;SDS011;6359;51.450;7.346;2022-09-09T02:34:52;3.13;;;1.67;;
12587;SDS011;6359;51.450;7.346;2022-09-09T02:37:24;6.25;;;1.65;;
12587;SDS011;6359;51.450;7.346;2022-09-09T02:40:02;4.25;;;2.00;;
12587;SDS011;6359;51.450;7.346;2022-09-09T02:42:29;4.20;;;1.80;;
12587;SDS011;6359;51.450;7.346;2022-09-09T02:44:57;3.80;;;1.90;;
12587;SDS011;6359;51.450;7.346;2022-09-09T02:47:25;4.40;;;1.60;;
12587;SDS011;6359;51.450;7.346;2022-09-09T02:50:00;4.00;;;1.60;;
12587;SDS011;6359;51.450;7.346;2022-09-09T02:52:36;5.75;;;1.77;;
12587;SDS011;6359;51.450;7.346;2022-09-09T02:55:13;3.33;;;1.60;;
12587;SDS011;6359;51.450;7.346;2022-09-09T02:57:46;5.75;;;1.70;;
12587;SDS011;6359;51.450;7.346;2022-09-09T03:00:15;2.53;;;1.52;;
12587;SDS011;6359;51.450;7.346;2022-09-09T03:02:49;2.63;;;1.48;;
12587;SDS011;6359;51.450;7.346;2022-09-09T03:05:16;6.10;;;1.90;;
12587;SDS011;6359;51.450;7.346;2022-09-09T03:07:43;7.10;;;1.77;;
12587;SDS011;6359;51.450;7.346;2022-09-09T03:10:10;3.88;;;1.55;;
12587;SDS011;6359;51.450;7.346;2022-09-09T03:12:37;7.22;;;1.77;;
12587;SDS011;6359;51.450;7.346;2022-09-09T03:15:04;8.50;;;1.75;;
12587;SDS011;6359;51.450;7.346;2022-09-09T03:17:33;4.22;;;1.80;;
12587;SDS011;6359;51.450;7.346;2022-09-09T03:20:00;6.75;;;1.70;;
12587;SDS011;6359;51.450;7.346;2022-09-09T03:22:28;4.22;;;1.95;;
12587;SDS011;6359;51.450;7.346;2022-09-09T03:24:54;6.90;;;1.50;;
12587;SDS011;6359;51.450;7.346;2022-09-09T03:27:21;9.13;;;1.80;;
12587;SDS011;6359;51.450;7.346;2022-09-09T03:29:48;6.28;;;1.55;;
12587;SDS011;6359;51.450;7.346;2022-09-09T03:32:16;2.65;;;1.40;;
12587;SDS011;6359;51.450;7.346;2022-09-09T03:34:44;5.32;;;1.58;;
12587;SDS011;6359;51.450;7.346;2022-09-09T03:37:12;5.45;;;1.55;;
12587;SDS011;6359;51.450;7.346;2022-09-09T03:39:39;4.82;;;1.52;;
12587;SDS011;6359;51.450;7.346;2022-09-09T03:42:06;4.65;;;1.75;;
12587;SDS011;6359;51.450;7.346;2022-09-09T03:44:33;3.25;;;1.73;;
12587;SDS011;6359;51.450;7.346;2022-09-09T03:47:00;7.25;;;2.10;;
12587;SDS011;6359;51.450;7.346;2022-09-09T03:49:27;5.80;;;1.85;;
12587;SDS011;6359;51.450;7.346;2022-09-09T03:51:55;4.97;;;1.63;;
12587;SDS011;6359;51.450;7.346;2022-09-09T03:54:23;6.47;;;1.70;;
12587;SDS011;6359;51.450;7.346;2022-09-09T03:56:50;4.18;;;1.50;;
12587;SDS011;6359;51.450;7.346;2022-09-09T03:59:17;4.57;;;1.67;;
12587;SDS011;6359;51.450;7.346;2022-09-09T04:01:45;3.40;;;1.70;;
12587;SDS011;6359;51.450;7.346;2022-09-09T04:04:12;3.83;;;1.52;;
12587;SDS011;6359;51.450;7.346;2022-09-09T04:06:42;3.65;;;1.67;;
12587;SDS011;6359;51.450;7.346;2022-09-09T04:09:10;5.10;;;2.28;;
12587;SDS011;6359;51.450;7.346;2022-09-09T04:11:37;3.28;;;1.80;;
12587;SDS011;6359;51.450;7.346;2022-09-09T04:14:04;5.40;;;1.75;;
12587;SDS011;6359;51.450;7.346;2022-09-09T04:16:31;3.95;;;1.52;;
12587;SDS011;6359;51.450;7.346;2022-09-09T04:18:58;2.83;;;1.85;;
12587;SDS011;6359;51.450;7.346;2022-09-09T04:21:26;7.35;;;1.85;;
12587;SDS011;6359;51.450;7.346;2022-09-09T04:23:53;3.72;;;1.50;;
12587;SDS011;6359;51.450;7.346;2022-09-09T04:26:21;3.05;;;1.45;;
12587;SDS011;6359;51.450;7.346;2022-09-09T04:28:48;3.67;;;2.13;;
12587;SDS011;6359;51.450;7.346;2022-09-09T04:31:16;6.30;;;2.30;;
12587;SDS011;6359;51.450;7.346;2022-09-09T04:33:45;7.97;;;2.00;;
12587;SDS011;6359;51.450;7.346;2022-09-09T04:36:12;7.45;;;2.10;;
12587;SDS011;6359;51.450;7.346;2022-09-09T04:38:39;3.15;;;1.90;;
12587;SDS011;6359;51.450;7.346;2022-09-09T04:41:06;4.50;;;2.13;;
12587;SDS011;6359;51.450;7.346;2022-09-09T04:43:37;3.58;;;1.88;;
12587;SDS011;6359;51.450;7.346;2022-09-09T04:46:05;4.88;;;1.95;;
12587;SDS011;6359;51.450;7.346;2022-09-09T04:48:32;5.55;;;1.50;;
12587;SDS011;6359;51.450;7.346;2022-09-09T04:50:59;3.58;;;1.70;;
12587;SDS011;6359;51.450;7.346;2022-09-09T04:53:28;8.57;;;2.08;;
12587;SDS011;6359;51.450;7.346;2022-09-09T04:56:02;6.95;;;1.85;;
12587;SDS011;6359;51.450;7.346;2022-09-09T04:58:29;5.05;;;2.10;;
12587;SDS011;6359;51.450;7.346;2022-09-09T05:01:04;5.13;;;2.20;;
12587;SDS011;6359;51.450;7.346;2022-09-09T05:03:32;7.60;;;2.22;;
12587;SDS011;6359;51.450;7.346;2022-09-09T05:06:02;6.15;;;1.73;;
12587;SDS011;6359;51.450;7.346;2022-09-09T05:08:31;7.15;;;1.70;;
12587;SDS011;6359;51.450;7.346;2022-09-09T05:10:58;6.53;;;2.03;;
12587;SDS011;6359;51.450;7.346;2022-09-09T05:13:25;5.68;;;1.38;;
12587;SDS011;6359;51.450;7.346;2022-09-09T05:15:52;5.80;;;1.85;;
12587;SDS011;6359;51.450;7.346;2022-09-09T05:18:20;5.32;;;1.75;;
12587;SDS011;6359;51.450;7.346;2022-09-09T05:20:47;4.63;;;1.77;;
12587;SDS011;6359;51.450;7.346;2022-09-09T05:23:16;5.13;;;2.13;;
12587;SDS011;6359;51.450;7.346;2022-09-09T05:25:43;7.00;;;1.98;;
12587;SDS011;6359;51.450;7.346;2022-09-09T05:28:11;8.27;;;1.83;;
12587;SDS011;6359;51.450;7.346;2022-09-09T05:30:38;5.82;;;1.58;;
12587;SDS011;6359;51.450;7.346;2022-09-09T05:33:05;3.90;;;1.42;;
12587;SDS011;6359;51.450;7.346;2022-09-09T05:35:35;6.60;;;1.92;;
12587;SDS011;6359;51.450;7.346;2022-09-09T05:38:03;9.57;;;2.15;;
12587;SDS011;6359;51.450;7.346;2022-09-09T05:40:29;4.55;;;1.83;;
12587;SDS011;6359;51.450;7.346;2022-09-09T05:42:59;7.20;;;1.80;;
12587;SDS011;6359;51.450;7.346;2022-09-09T05:45:27;3.70;;;1.83;;
12587;SDS011;6359;51.450;7.346;2022-09-09T05:47:53;6.03;;;2.05;;
12587;SDS011;6359;51.450;7.346;2022-09-09T05:50:20;6.47;;;1.70;;
12587;SDS011;6359;51.450;7.346;2022-09-09T05:52:48;5.55;;;1.77;;
12587;SDS011;6359;51.450;7.346;2022-09-09T05:55:15;4.43;;;1.52;;
12587;SDS011;6359;51.450;7.346;2022-09-09T05:57:47;4.95;;;1.40;;
12587;SDS011;6359;51.450;7.346;2022-09-09T06:00:15;11.23;;;2.10;;
12587;SDS011;6359;51.450;7.346;2022-09-09T06:02:42;3.67;;;1.35;;
12587;SDS011;6359;51.450;7.346;2022-09-09T06:05:09;7.32;;;1.70;;
12587;SDS011;6359;51.450;7.346;2022-09-09T06:07:36;4.95;;;1.45;;
12587;SDS011;6359;51.450;7.346;2022-09-09T06:10:08;5.47;;;1.58;;
12587;SDS011;6359;51.450;7.346;2022-09-09T06:12:35;6.32;;;1.77;;
12587;SDS011;6359;51.450;7.346;2022-09-09T06:15:02;5.57;;;1.50;;
12587;SDS011;6359;51.450;7.346;2022-09-09T06:17:30;5.82;;;1.52;;
12587;SDS011;6359;51.450;7.346;2022-09-09T06:19:57;6.97;;;1.75;;
12587;SDS011;6359;51.450;7.346;2022-09-09T06:22:24;3.88;;;1.58;;
12587;SDS011;6359;51.450;7.346;2022-09-09T06:24:52;4.97;;;1.60;;
12587;SDS011;6359;51.450;7.346;2022-09-09T06:27:20;7.43;;;1.85;;
12587;SDS011;6359;51.450;7.346;2022-09-09T06:29:47;6.68;;;1.70;;
12587;SDS011;6359;51.450;7.346;2022-09-09T06:32:14;4.05;;;1.30;;
12587;SDS011;6359;51.450;7.346;2022-09-09T06:34:41;7.22;;;1.55;;
12587;SDS011;6359;51.450;7.346;2022-09-09T06:37:10;4.90;;;1.60;;
12587;SDS011;6359;51.450;7.346;2022-09-09T06:39:37;2.30;;;1.40;;
12587;SDS011;6359;51.450;7.346;2022-09-09T06:42:04;3.05;;;1.20;;
12587;SDS011;6359;51.450;7.346;2022-09-09T06:44:34;4.03;;;1.63;;
12587;SDS011;6359;51.450;7.346;2022-09-09T06:47:01;3.85;;;1.80;;
12587;SDS011;6359;51.450;7.346;2022-09-09T06:49:28;4.25;;;1.58;;
12587;SDS011;6359;51.450;7.346;2022-09-09T06:51:55;2.72;;;1.48;;
12587;SDS011;6359;51.450;7.346;2022-09-09T06:54:22;7.63;;;1.52;;
12587;SDS011;6359;51.450;7.346;2022-09-09T06:56:50;3.05;;;1.40;;
12587;SDS011;6359;51.450;7.346;2022-09-09T06:59:17;4.28;;;1.45;;
12587;SDS011;6359;51.450;7.346;2022-09-09T07:01:46;4.70;;;1.50;;
12587;SDS011;6359;51.450;7.346;2022-09-09T07:04:13;6.18;;;1.70;;
12587;SDS011;6359;51.450;7.346;2022-09-09T07:06:40;5.45;;;1.35;;
12587;SDS011;6359;51.450;7.346;2022-09-09T07:09:09;4.00;;;1.55;;
12587;SDS011;6359;51.450;7.346;2022-09-09T07:11:38;5.95;;;1.80;;
12587;SDS011;6359;51.450;7.346;2022-09-09T07:14:07;4.78;;;1.42;;
12587;SDS011;6359;51.450;7.346;2022-09-09T07:16:36;7.70;;;1.50;;
12587;SDS011;6359;51.450;7.346;2022-09-09T07:19:05;5.55;;;1.50;;
12587;SDS011;6359;51.450;7.346;2022-09-09T07:21:32;7.13;;;1.27;;
12587;SDS011;6359;51.450;7.346;2022-09-09T07:24:00;5.15;;;1.65;;
12587;SDS011;6359;51.450;7.346;2022-09-09T07:26:28;2.60;;;1.15;;
12587;SDS011;6359;51.450;7.346;2022-09-09T07:28:56;2.45;;;1.15;;
12587;SDS011;6359;51.450;7.346;2022-09-09T07:31:24;7.30;;;1.15;;
12587;SDS011;6359;51.450;7.346;2022-09-09T07:33:53;2.55;;;1.13;;
12587;SDS011;6359;51.450;7.346;2022-09-09T07:36:22;2.95;;;1.10;;
12587;SDS011;6359;51.450;7.346;2022-09-09T07:38:51;2.28;;;0.82;;
12587;SDS011;6359;51.450;7.346;2022-09-09T07:41:20;4.07;;;1.55;;
12587;SDS011;6359;51.450;7.346;2022-09-09T07:43:49;3.35;;;1.10;;
12587;SDS011;6359;51.450;7.346;2022-09-09T07:46:19;2.92;;;1.08;;
12587;SDS011;6359;51.450;7.346;2022-09-09T07:48:48;7.53;;;1.40;;
12587;SDS011;6359;51.450;7.346;2022-09-09T07:51:17;4.13;;;1.38;;
12587;SDS011;6359;51.450;7.346;2022-09-09T07:53:51;10.38;;;2.03;;
12587;SDS011;6359;51.450;7.346;2022-09-09T07:56:18;4.88;;;1.30;;
12587;SDS011;6359;51.450;7.346;2022-09-09T07:58:48;4.82;;;1.50;;
12587;SDS011;6359;51.450;7.346;2022-09-09T08:01:17;4.75;;;1.30;;
12587;SDS011;6359;51.450;7.346;2022-09-09T08:03:45;4.65;;;1.17;;
12587;SDS011;6359;51.450;7.346;2022-09-09T08:06:13;4.60;;;1.45;;
12587;SDS011;6359;51.450;7.346;2022-09-09T08:08:40;5.43;;;1.05;;
12587;SDS011;6359;51.450;7.346;2022-09-09T08:11:10;3.53;;;1.30;;
12587;SDS011;6359;51.450;7.346;2022-09-09T08:13:39;3.22;;;1.27;;
12587;SDS011;6359;51.450;7.346;2022-09-09T08:16:08;4.57;;;1.48;;
12587;SDS011;6359;51.450;7.346;2022-09-09T08:18:36;4.53;;;1.55;;
12587;SDS011;6359;51.450;7.346;2022-09-09T08:21:04;6.93;;;1.65;;
12587;SDS011;6359;51.450;7.346;2022-09-09T08:23:36;4.85;;;1.42;;
12587;SDS011;6359;51.450;7.346;2022-09-09T08:26:08;2.83;;;1.40;;
12587;SDS011;6359;51.450;7.346;2022-09-09T08:28:38;3.90;;;1.00;;
12587;SDS011;6359;51.450;7.346;2022-09-09T08:31:09;4.10;;;1.33;;
12587;SDS011;6359;51.450;7.346;2022-09-09T08:33:38;3.95;;;1.35;;
12587;SDS011;6359;51.450;7.346;2022-09-09T08:36:06;6.75;;;1.60;;
12587;SDS011;6359;51.450;7.346;2022-09-09T08:38:35;2.60;;;1.23;;
12587;SDS011;6359;51.450;7.346;2022-09-09T08:41:29;4.57;;;1.42;;
12587;SDS011;6359;51.450;7.346;2022-09-09T08:44:06;5.57;;;1.40;;
12587;SDS011;6359;51.450;7.346;2022-09-09T08:46:39;4.55;;;1.27;;
12587;SDS011;6359;51.450;7.346;2022-09-09T08:49:16;3.83;;;1.15;;
12587;SDS011;6359;51.450;7.346;2022-09-09T08:51:56;4.68;;;1.45;;
12587;SDS011;6359;51.450;7.346;2022-09-09T08:54:24;5.55;;;1.42;;
12587;SDS011;6359;51.450;7.346;2022-09-09T08:56:59;6.43;;;1.85;;
12587;SDS011;6359;51.450;7.346;2022-09-09T08:59:26;5.47;;;1.60;;
12587;SDS011;6359;51.450;7.346;2022-09-09T09:01:55;4.15;;;1.70;;
12587;SDS011;6359;51.450;7.346;2022-09-09T09:04:36;4.97;;;1.65;;
12587;SDS011;6359;51.450;7.346;2022-09-09T09:07:14;4.97;;;1.40;;
12587;SDS011;6359;51.450;7.346;2022-09-09T09:09:50;6.20;;;1.30;;
12587;SDS011;6359;51.450;7.346;2022-09-09T09:12:26;5.97;;;2.03;;
12587;SDS011;6359;51.450;7.346;2022-09-09T09:14:55;6.43;;;1.90;;
12587;SDS011;6359;51.450;7.346;2022-09-09T09:17:24;6.93;;;1.80;;
12587;SDS011;6359;51.450;7.346;2022-09-09T09:19:56;4.78;;;1.55;;
12587;SDS011;6359;51.450;7.346;2022-09-09T09:22:26;7.40;;;2.30;;
12587;SDS011;6359;51.450;7.346;2022-09-09T09:25:02;4.53;;;1.30;;
12587;SDS011;6359;51.450;7.346;2022-09-09T09:27:40;10.52;;;1.73;;
12587;SDS011;6359;51.450;7.346;2022-09-09T09:30:13;4.32;;;1.50;;
12587;SDS011;6359;51.450;7.346;2022-09-09T09:32:44;5.25;;;1.65;;
12587;SDS011;6359;51.450;7.346;2022-09-09T09:35:18;3.30;;;1.30;;
12587;SDS011;6359;51.450;7.346;2022-09-09T09:37:45;4.65;;;1.55;;
12587;SDS011;6359;51.450;7.346;2022-09-09T09:40:14;7.72;;;1.90;;
12587;SDS011;6359;51.450;7.346;2022-09-09T09:42:52;5.45;;;1.80;;
12587;SDS011;6359;51.450;7.346;2022-09-09T09:45:25;3.90;;;1.88;;
12587;SDS011;6359;51.450;7.346;2022-09-09T09:47:58;10.05;;;1.77;;
12587;SDS011;6359;51.450;7.346;2022-09-09T09:50:27;7.07;;;1.92;;
12587;SDS011;6359;51.450;7.346;2022-09-09T09:52:55;4.32;;;1.35;;
12587;SDS011;6359;51.450;7.346;2022-09-09T09:55:23;6.00;;;1.67;;
12587;SDS011;6359;51.450;7.346;2022-09-09T09:57:53;5.15;;;1.30;;
12587;SDS011;6359;51.450;7.346;2022-09-09T10:00:26;6.47;;;1.60;;
12587;SDS011;6359;51.450;7.346;2022-09-09T10:02:53;4.80;;;1.60;;
12587;SDS011;6359;51.450;7.346;2022-09-09T10:05:22;5.03;;;1.75;;
12587;SDS011;6359;51.450;7.346;2022-09-09T10:08:00;5.13;;;1.27;;
12587;SDS011;6359;51.450;7.346;2022-09-09T10:10:40;8.18;;;1.70;;
12587;SDS011;6359;51.450;7.346;2022-09-09T10:13:18;3.67;;;1.58;;
12587;SDS011;6359;51.450;7.346;2022-09-09T10:15:54;5.97;;;1.77;;
12587;SDS011;6359;51.450;7.346;2022-09-09T10:18:39;5.82;;;2.20;;
12587;SDS011;6359;51.450;7.346;2022-09-09T10:21:20;5.97;;;1.48;;
12587;SDS011;6359;51.450;7.346;2022-09-09T10:24:05;4.75;;;1.40;;
12587;SDS011;6359;51.450;7.346;2022-09-09T10:26:54;4.13;;;2.20;;
12587;SDS011;6359;51.450;7.346;2022-09-09T10:29:43;5.65;;;1.80;;
12587;SDS011;6359;51.450;7.346;2022-09-09T10:32:29;2.78;;;1.58;;
12587;SDS011;6359;51.450;7.346;2022-09-09T10:35:10;5.32;;;1.40;;
12587;SDS011;6359;51.450;7.346;2022-09-09T10:37:43;3.05;;;0.98;;
12587;SDS011;6359;51.450;7.346;2022-09-09T10:40:21;4.90;;;1.85;;
12587;SDS011;6359;51.450;7.346;2022-09-09T10:42:56;4.97;;;1.50;;
12587;SDS011;6359;51.450;7.346;2022-09-09T10:45:32;5.18;;;1.20;;
12587;SDS011;6359;51.450;7.346;2022-09-09T10:48:14;3.00;;;1.30;;
12587;SDS011;6359;51.450;7.346;2022-09-09T10:50:56;2.05;;;1.05;;
12587;SDS011;6359;51.450;7.346;2022-09-09T10:53:41;2.92;;;1.20;;
12587;SDS011;6359;51.450;7.346;2022-09-09T10:56:18;1.92;;;0.93;;
12587;SDS011;6359;51.450;7.346;2022-09-09T10:58:49;3.97;;;1.40;;
12587;SDS011;6359;51.450;7.346;2022-09-09T11:01:22;4.95;;;1.52;;
12587;SDS011;6359;51.450;7.346;2022-09-09T11:03:52;2.30;;;1.05;;
12587;SDS011;6359;51.450;7.346;2022-09-09T11:06:24;3.63;;;1.20;;
12587;SDS011;6359;51.450;7.346;2022-09-09T11:08:55;2.20;;;1.27;;
12587;SDS011;6359;51.450;7.346;2022-09-09T11:11:27;2.30;;;1.20;;
12587;SDS011;6359;51.450;7.346;2022-09-09T11:14:00;6.45;;;1.23;;
12587;SDS011;6359;51.450;7.346;2022-09-09T11:16:33;4.72;;;1.42;;
12587;SDS011;6359;51.450;7.346;2022-09-09T11:19:11;1.92;;;1.05;;
12587;SDS011;6359;51.450;7.346;2022-09-09T11:21:44;1.95;;;0.95;;
12587;SDS011;6359;51.450;7.346;2022-09-09T11:24:13;7.50;;;1.10;;
12587;SDS011;6359;51.450;7.346;2022-09-09T11:26:49;4.43;;;1.50;;
12587;SDS011;6359;51.450;7.346;2022-09-09T11:29:29;2.80;;;0.90;;
12587;SDS011;6359;51.450;7.346;2022-09-09T11:32:17;3.65;;;1.20;;
12587;SDS011;6359;51.450;7.346;2022-09-09T11:34:56;2.97;;;0.90;;
12587;SDS011;6359;51.450;7.346;2022-09-09T11:37:43;2.13;;;1.17;;
12587;SDS011;6359;51.450;7.346;2022-09-09T11:40:31;2.92;;;0.98;;
12587;SDS011;6359;51.450;7.346;2022-09-09T11:43:01;5.78;;;1.17;;
12587;SDS011;6359;51.450;7.346;2022-09-09T11:45:31;3.17;;;0.90;;
12587;SDS011;6359;51.450;7.346;2022-09-09T11:48:03;1.38;;;1.00;;
12587;SDS011;6359;51.450;7.346;2022-09-09T11:50:32;3.67;;;1.13;;
12587;SDS011;6359;51.450;7.346;2022-09-09T11:53:05;2.00;;;0.95;;
12587;SDS011;6359;51.450;7.346;2022-09-09T11:55:47;3.17;;;0.80;;
12587;SDS011;6359;51.450;7.346;2022-09-09T11:58:26;6.15;;;1.08;;
12587;SDS011;6359;51.450;7.346;2022-09-09T12:00:54;3.00;;;0.90;;
12587;SDS011;6359;51.450;7.346;2022-09-09T12:06:12;3.33;;;1.10;;
12587;SDS011;6359;51.450;7.346;2022-09-09T12:08:43;2.45;;;1.05;;
12587;SDS011;6359;51.450;7.346;2022-09-09T12:11:22;5.75;;;1.17;;
12587;SDS011;6359;51.450;7.346;2022-09-09T12:13:52;4.68;;;1.17;;
12587;SDS011;6359;51.450;7.346;2022-09-09T12:16:30;2.33;;;0.90;;
12587;SDS011;6359;51.450;7.346;2022-09-09T12:19:13;3.10;;;1.23;;
12587;SDS011;6359;51.450;7.346;2022-09-09T12:21:44;5.57;;;1.40;;
12587;SDS011;6359;51.450;7.346;2022-09-09T12:24:18;2.15;;;1.17;;
12587;SDS011;6359;51.450;7.346;2022-09-09T12:26:52;3.88;;;1.17;;
12587;SDS011;6359;51.450;7.346;2022-09-09T12:29:26;5.05;;;1.42;;
12587;SDS011;6359;51.450;7.346;2022-09-09T12:31:56;2.10;;;1.20;;
12587;SDS011;6359;51.450;7.346;2022-09-09T12:34:34;5.22;;;1.48;;
12587;SDS011;6359;51.450;7.346;2022-09-09T12:37:06;5.88;;;2.33;;
12587;SDS011;6359;51.450;7.346;2022-09-09T12:39:44;7.03;;;2.13;;
12587;SDS011;6359;51.450;7.346;2022-09-09T12:42:16;3.20;;;1.52;;
12587;SDS011;6359;51.450;7.346;2022-09-09T12:44:51;4.60;;;1.50;;
12587;SDS011;6359;51.450;7.346;2022-09-09T12:47:23;2.83;;;1.27;;
12587;SDS011;6359;51.450;7.346;2022-09-09T12:49:56;3.97;;;1.20;;
12587;SDS011;6359;51.450;7.346;2022-09-09T12:52:25;1.20;;;1.00;;
12587;SDS011;6359;51.450;7.346;2022-09-09T12:54:56;3.67;;;1.00;;
12587;SDS011;6359;51.450;7.346;2022-09-09T12:57:24;3.03;;;1.30;;
12587;SDS011;6359;51.450;7.346;2022-09-09T13:00:03;3.92;;;1.25;;
12587;SDS011;6359;51.450;7.346;2022-09-09T13:02:32;6.20;;;2.15;;
12587;SDS011;6359;51.450;7.346;2022-09-09T13:05:08;4.47;;;1.55;;
12587;SDS011;6359;51.450;7.346;2022-09-09T13:07:42;4.68;;;1.50;;
12587;SDS011;6359;51.450;7.346;2022-09-09T13:10:10;3.33;;;1.48;;
12587;SDS011;6359;51.450;7.346;2022-09-09T13:12:38;3.13;;;1.30;;
12587;SDS011;6359;51.450;7.346;2022-09-09T13:15:10;4.43;;;1.42;;
12587;SDS011;6359;51.450;7.346;2022-09-09T13:17:48;2.97;;;1.23;;
12587;SDS011;6359;51.450;7.346;2022-09-09T13:20:19;3.38;;;1.50;;
12587;SDS011;6359;51.450;7.346;2022-09-09T13:22:47;2.60;;;1.67;;
12587;SDS011;6359;51.450;7.346;2022-09-09T13:25:18;6.28;;;1.80;;
12587;SDS011;6359;51.450;7.346;2022-09-09T13:28:00;4.25;;;1.50;;
12587;SDS011;6359;51.450;7.346;2022-09-09T13:30:29;3.47;;;1.20;;
12587;SDS011;6359;51.450;7.346;2022-09-09T13:33:01;2.85;;;1.15;;
12587;SDS011;6359;51.450;7.346;2022-09-09T13:35:34;2.70;;;1.17;;
12587;SDS011;6359;51.450;7.346;2022-09-09T13:38:12;3.22;;;1.10;;
12587;SDS011;6359;51.450;7.346;2022-09-09T13:40:40;4.97;;;1.17;;
12587;SDS011;6359;51.450;7.346;2022-09-09T13:43:18;2.95;;;1.40;;
12587;SDS011;6359;51.450;7.346;2022-09-09T13:45:52;1.95;;;1.23;;
12587;SDS011;6359;51.450;7.346;2022-09-09T13:48:21;2.97;;;1.00;;
12587;SDS011;6359;51.450;7.346;2022-09-09T13:50:54;3.17;;;1.38;;
12587;SDS011;6359;51.450;7.346;2022-09-09T13:53:23;4.97;;;1.42;;
12587;SDS011;6359;51.450;7.346;2022-09-09T13:55:50;3.03;;;1.50;;
12587;SDS011;6359;51.450;7.346;2022-09-09T13:58:17;3.40;;;1.55;;
12587;SDS011;6359;51.450;7.346;2022-09-09T14:00:45;6.47;;;1.40;;
12587;SDS011;6359;51.450;7.346;2022-09-09T14:03:12;4.13;;;1.25;;
12587;SDS011;6359;51.450;7.346;2022-09-09T14:05:39;4.97;;;1.50;;
12587;SDS011;6359;51.450;7.346;2022-09-09T14:08:09;4.80;;;1.63;;
12587;SDS011;6359;51.450;7.346;2022-09-09T14:10:42;4.90;;;1.63;;
12587;SDS011;6359;51.450;7.346;2022-09-09T14:13:09;6.68;;;1.95;;
12587;SDS011;6359;51.450;7.346;2022-09-09T14:15:37;6.80;;;1.48;;
12587;SDS011;6359;51.450;7.346;2022-09-09T14:18:04;7.43;;;1.73;;
12587;SDS011;6359;51.450;7.346;2022-09-09T14:20:31;4.15;;;1.63;;
12587;SDS011;6359;51.450;7.346;2022-09-09T14:22:58;3.88;;;1.23;;
12587;SDS011;6359;51.450;7.346;2022-09-09T14:25:26;5.95;;;1.38;;
12587;SDS011;6359;51.450;7.346;2022-09-09T14:27:53;3.50;;;1.38;;
12587;SDS011;6359;51.450;7.346;2022-09-09T14:30:21;3.20;;;1.40;;
12587;SDS011;6359;51.450;7.346;2022-09-09T14:32:48;6.20;;;1.80;;
12587;SDS011;6359;51.450;7.346;2022-09-09T14:35:15;2.85;;;1.30;;
12587;SDS011;6359;51.450;7.346;2022-09-09T14:37:43;4.03;;;1.30;;
12587;SDS011;6359;51.450;7.346;2022-09-09T14:40:10;3.15;;;1.17;;
12587;SDS011;6359;51.450;7.346;2022-09-09T14:42:38;4.70;;;1.30;;
12587;SDS011;6359;51.450;7.346;2022-09-09T14:45:06;4.70;;;1.23;;
12587;SDS011;6359;51.450;7.346;2022-09-09T14:47:34;5.25;;;0.95;;
12587;SDS011;6359;51.450;7.346;2022-09-09T14:50:01;4.55;;;1.20;;
12587;SDS011;6359;51.450;7.346;2022-09-09T14:52:30;3.50;;;1.08;;
12587;SDS011;6359;51.450;7.346;2022-09-09T14:54:57;1.67;;;1.20;;
12587;SDS011;6359;51.450;7.346;2022-09-09T14:57:23;5.95;;;1.38;;
12587;SDS011;6359;51.450;7.346;2022-09-09T14:59:52;4.53;;;1.73;;
12587;SDS011;6359;51.450;7.346;2022-09-09T15:02:18;6.72;;;1.40;;
12587;SDS011;6359;51.450;7.346;2022-09-09T15:04:45;3.90;;;1.50;;
12587;SDS011;6359;51.450;7.346;2022-09-09T15:07:12;6.05;;;1.52;;
12587;SDS011;6359;51.450;7.346;2022-09-09T15:09:39;4.53;;;1.50;;
12587;SDS011;6359;51.450;7.346;2022-09-09T15:12:06;3.30;;;1.27;;
12587;SDS011;6359;51.450;7.346;2022-09-09T15:14:33;7.53;;;1.50;;
12587;SDS011;6359;51.450;7.346;2022-09-09T15:17:01;2.80;;;1.23;;
12587;SDS011;6359;51.450;7.346;2022-09-09T15:19:28;2.80;;;1.20;;
12587;SDS011;6359;51.450;7.346;2022-09-09T15:21:55;4.43;;;1.40;;
12587;SDS011;6359;51.450;7.346;2022-09-09T15:24:22;6.75;;;1.20;;
12587;SDS011;6359;51.450;7.346;2022-09-09T15:26:49;3.83;;;1.35;;